Terminal Aerodrome Forecast
Issued by NWS Blacksburg, VA

Current Version | Previous Version | Graphics & Text | Print | Product List | Glossary On
Versions: 1 2 3 4 5 6 7 8 9 10 11 12 13 14
000
FTUS41 KRNK 261724
TAFBLF
TAF
KBLF 261724Z 2618/2718 VRB03KT P6SM SKC
     FM270300 15007KT P6SM SKC
     FM271500 17010G20KT P6SM VCSH BKN035=

USA.gov is the U.S. government's official web portal to all federal, state and local government web resources and services.